createdAt,value
2019-02-07T00:01:53.797Z,72.63
2019-02-07T00:04:24.273Z,72.89
2019-02-07T00:06:54.888Z,72.88
2019-02-07T00:09:25.496Z,72.65
2019-02-07T00:11:55.966Z,72.92
2019-02-07T00:14:26.534Z,72.87
2019-02-07T00:16:57.041Z,72.70
2019-02-07T00:19:27.632Z,72.37
2019-02-07T00:21:58.095Z,72.50
2019-02-07T00:24:28.881Z,72.66
2019-02-07T00:26:59.350Z,72.78
2019-02-07T00:29:29.845Z,72.54
2019-02-07T00:32:00.391Z,72.47
2019-02-07T00:34:30.955Z,72.31
2019-02-07T00:37:01.931Z,71.84
2019-02-07T00:39:32.473Z,71.68
2019-02-07T00:42:03.233Z,71.43
2019-02-07T00:44:33.692Z,71.83
2019-02-07T00:47:04.258Z,71.48
2019-02-07T00:49:34.715Z,71.79
2019-02-07T00:52:05.316Z,71.75
2019-02-07T00:54:35.853Z,71.51
2019-02-07T00:57:06.386Z,71.48
2019-02-07T00:59:36.871Z,71.44
2019-02-07T01:02:07.956Z,71.27
2019-02-07T01:04:38.585Z,71.13
2019-02-07T01:07:09.271Z,71.37
2019-02-07T01:09:39.861Z,71.93
2019-02-07T01:12:10.460Z,72.07
2019-02-07T01:14:41.061Z,71.99
2019-02-07T01:17:12.004Z,71.96
2019-02-07T01:19:42.615Z,71.88
2019-02-07T01:22:13.082Z,71.95
2019-02-07T01:24:43.538Z,71.67
2019-02-07T01:27:14.245Z,71.72
2019-02-07T01:29:44.696Z,71.87
2019-02-07T01:32:15.181Z,72.03
2019-02-07T01:34:45.672Z,71.93
2019-02-07T01:37:16.350Z,72.09
2019-02-07T01:39:47.017Z,71.92
2019-02-07T01:42:17.517Z,71.87
2019-02-07T01:44:48.453Z,71.72
2019-02-07T01:47:18.905Z,71.70
2019-02-07T01:49:49.368Z,71.75
2019-02-07T01:52:19.961Z,71.67
2019-02-07T01:54:50.429Z,70.75
2019-02-07T01:57:20.893Z,70.62
2019-02-07T01:59:51.404Z,70.24
2019-02-07T02:02:21.859Z,69.88
2019-02-07T02:04:52.349Z,69.01
2019-02-07T02:07:22.864Z,69.07
2019-02-07T02:09:53.563Z,68.66
2019-02-07T02:12:24.311Z,68.85
2019-02-07T02:14:54.847Z,68.20
2019-02-07T02:17:25.340Z,67.37
2019-02-07T02:19:55.796Z,67.47
2019-02-07T02:22:26.303Z,67.41
2019-02-07T02:24:56.799Z,66.54
2019-02-07T02:27:27.259Z,66.67
2019-02-07T02:29:57.956Z,65.89
2019-02-07T02:32:28.412Z,64.99
2019-02-07T02:34:58.904Z,64.56
2019-02-07T02:37:29.339Z,64.42
2019-02-07T02:39:59.962Z,64.60
2019-02-07T02:42:30.551Z,64.45
2019-02-07T02:45:01.004Z,63.88
2019-02-07T02:47:31.691Z,63.88
2019-02-07T02:50:02.155Z,63.89
2019-02-07T02:52:32.717Z,63.95
2019-02-07T02:55:03.281Z,63.61
2019-02-07T02:57:33.736Z,64.17
2019-02-07T03:00:06.676Z,64.06
2019-02-07T03:03:01.888Z,64.24
2019-02-07T03:05:49.691Z,64.36
2019-02-07T03:08:37.825Z,64.36
2019-02-07T03:11:19.982Z,64.96
2019-02-07T03:14:05.863Z,65.77
2019-02-07T03:16:53.469Z,66.17
2019-02-07T03:19:40.268Z,66.57
2019-02-07T03:22:41.215Z,67.34
2019-02-07T03:25:33.607Z,67.50
2019-02-07T03:28:22.256Z,68.25
2019-02-07T03:31:23.839Z,69.81
2019-02-07T03:34:04.799Z,69.63
2019-02-07T03:36:48.567Z,69.87
2019-02-07T03:39:37.975Z,69.89
2019-02-07T03:42:27.404Z,69.98
2019-02-07T03:45:22.798Z,69.94
2019-02-07T03:48:12.134Z,70.79
2019-02-07T03:51:08.285Z,70.66
2019-02-07T03:53:55.995Z,70.30
2019-02-07T03:56:45.325Z,69.98
2019-02-07T03:59:33.502Z,69.56
2019-02-07T04:02:33.990Z,69.61
2019-02-07T04:05:22.722Z,69.31
2019-02-07T04:08:10.470Z,69.40
2019-02-07T04:11:05.536Z,69.14
2019-02-07T04:14:01.062Z,69.58
2019-02-07T04:16:43.958Z,69.62
2019-02-07T04:19:26.071Z,69.29
2019-02-07T04:22:13.779Z,69.16
2019-02-07T04:25:01.740Z,69.42
2019-02-07T04:27:51.025Z,69.40
2019-02-07T04:30:38.787Z,69.31
2019-02-07T04:33:28.126Z,69.24
2019-02-07T04:36:35.308Z,69.11
2019-02-07T04:39:36.258Z,68.75
2019-02-07T04:42:17.739Z,68.69
2019-02-07T04:45:05.453Z,68.76
2019-02-07T04:47:57.981Z,68.59
2019-02-07T04:50:43.717Z,68.03
2019-02-07T04:53:41.935Z,68.12
2019-02-07T04:56:28.476Z,67.93
2019-02-07T04:59:14.758Z,67.88
2019-02-07T05:01:59.930Z,67.90
2019-02-07T05:04:44.491Z,68.12
2019-02-07T05:07:25.750Z,68.36
2019-02-07T05:10:15.079Z,68.25
2019-02-07T05:13:02.792Z,68.01
2019-02-07T05:16:04.091Z,68.19
2019-02-07T05:18:56.392Z,67.92
2019-02-07T05:21:54.548Z,67.90
2019-02-07T05:24:43.987Z,67.87
2019-02-07T05:27:39.724Z,67.75
2019-02-07T05:30:34.252Z,67.33
2019-02-07T05:33:18.211Z,67.50
2019-02-07T05:36:16.699Z,67.51
2019-02-07T05:39:24.079Z,67.52
2019-02-07T05:42:25.718Z,67.53
2019-02-07T05:45:20.770Z,67.56
2019-02-07T05:48:08.547Z,67.86
2019-02-07T05:51:12.859Z,67.40
2019-02-07T05:54:00.912Z,67.05
2019-02-07T05:56:41.876Z,66.98
2019-02-07T05:59:37.278Z,67.18
2019-02-07T06:02:26.674Z,66.72
2019-02-07T06:05:16.020Z,66.11
2019-02-07T06:08:11.465Z,66.29
2019-02-07T06:10:52.095Z,66.24
2019-02-07T06:13:47.592Z,65.53
2019-02-07T06:17:02.357Z,65.24
2019-02-07T06:19:40.499Z,64.81
2019-02-07T06:22:28.311Z,63.21
2019-02-07T06:25:23.764Z,63.10
2019-02-07T06:28:13.209Z,63.50
2019-02-07T06:31:01.484Z,64.33
2019-02-07T06:34:09.157Z,64.62
2019-02-07T06:36:57.386Z,64.66
2019-02-07T06:39:38.092Z,64.67
2019-02-07T06:42:20.043Z,64.07
2019-02-07T06:45:07.964Z,64.13
2019-02-07T06:48:00.268Z,63.60
2019-02-07T06:50:48.068Z,62.97
2019-02-07T06:53:46.244Z,63.22
2019-02-07T06:56:35.582Z,62.81
2019-02-07T06:59:18.470Z,63.13
2019-02-07T07:02:06.449Z,62.49
2019-02-07T07:05:04.691Z,61.43
2019-02-07T07:08:02.924Z,60.77
2019-02-07T07:11:04.410Z,60.09
2019-02-07T07:13:59.772Z,58.90
2019-02-07T07:16:46.734Z,59.12
2019-02-07T07:19:34.786Z,59.57
2019-02-07T07:22:27.568Z,58.67
2019-02-07T07:25:19.696Z,58.56
2019-02-07T07:28:19.283Z,58.26
2019-02-07T07:31:17.985Z,59.24
2019-02-07T07:34:19.640Z,58.76
2019-02-07T07:37:00.036Z,58.52
2019-02-07T07:39:52.416Z,58.43
2019-02-07T07:42:53.706Z,58.47
2019-02-07T07:45:41.698Z,58.96
2019-02-07T07:48:30.145Z,58.45
2019-02-07T07:51:12.428Z,58.36
2019-02-07T07:54:01.912Z,58.27
2019-02-07T07:56:47.511Z,58.03
2019-02-07T07:59:37.117Z,57.38
2019-02-07T08:02:35.680Z,57.52
2019-02-07T08:05:32.539Z,57.21
2019-02-07T08:08:24.966Z,57.83
2019-02-07T08:11:29.390Z,57.96
2019-02-07T08:14:37.315Z,58.14
2019-02-07T08:17:32.757Z,57.94
2019-02-07T08:20:17.459Z,57.73
2019-02-07T08:23:15.828Z,56.79
2019-02-07T08:26:14.487Z,56.83
2019-02-07T08:29:02.559Z,56.53
2019-02-07T08:31:46.429Z,56.39
2019-02-07T08:34:34.777Z,55.43
2019-02-07T08:37:33.199Z,55.13
2019-02-07T08:40:31.327Z,55.04
2019-02-07T08:43:20.915Z,55.03
2019-02-07T08:46:08.999Z,54.12
2019-02-07T08:49:01.030Z,54.30
2019-02-07T08:51:55.500Z,54.98
2019-02-07T08:54:43.325Z,54.79
2019-02-07T08:57:48.204Z,54.78
2019-02-07T09:00:36.160Z,54.01
2019-02-07T09:03:28.519Z,54.27
2019-02-07T09:06:12.166Z,53.22
2019-02-07T09:09:07.781Z,53.48
2019-02-07T09:11:56.221Z,53.42
2019-02-07T09:15:00.727Z,52.78
2019-02-07T09:17:48.565Z,53.61
2019-02-07T09:20:25.800Z,53.08
2019-02-07T09:23:30.403Z,53.18
2019-02-07T09:26:34.718Z,54.19
2019-02-07T09:29:20.050Z,53.38
2019-02-07T09:32:05.225Z,54.20
2019-02-07T09:34:47.701Z,52.36
2019-02-07T09:37:39.682Z,52.90
2019-02-07T09:40:28.006Z,53.37
2019-02-07T09:43:15.727Z,53.46
2019-02-07T09:46:03.647Z,53.10
2019-02-07T09:48:51.711Z,52.00
2019-02-07T09:51:34.794Z,50.74
2019-02-07T09:54:23.266Z,50.74
2019-02-07T09:57:05.848Z,50.43
2019-02-07T10:00:10.428Z,50.75
2019-02-07T10:03:08.380Z,50.20
2019-02-07T10:06:12.634Z,49.59
2019-02-07T10:09:00.652Z,50.27
2019-02-07T10:11:50.112Z,48.95
2019-02-07T10:14:45.503Z,48.41
2019-02-07T10:17:41.037Z,47.03
2019-02-07T10:20:40.289Z,48.18
2019-02-07T10:23:23.035Z,49.20
2019-02-07T10:26:27.894Z,48.32
2019-02-07T10:29:31.915Z,47.08
2019-02-07T10:32:17.815Z,47.89
2019-02-07T10:35:23.135Z,47.59
2019-02-07T10:38:12.604Z,47.93
2019-02-07T10:41:10.970Z,48.18
2019-02-07T10:43:58.733Z,48.58
2019-02-07T10:46:48.179Z,48.96
2019-02-07T10:49:46.306Z,48.99
2019-02-07T10:52:41.931Z,48.89
2019-02-07T10:55:34.376Z,48.54
2019-02-07T10:58:27.314Z,49.04
2019-02-07T11:01:16.999Z,48.97
2019-02-07T11:04:12.953Z,48.38
2019-02-07T11:07:00.803Z,48.64
2019-02-07T11:09:59.321Z,47.73
2019-02-07T11:12:47.583Z,47.62
2019-02-07T11:15:49.944Z,47.81
2019-02-07T11:18:55.056Z,47.58
2019-02-07T11:21:39.524Z,47.86
2019-02-07T11:24:47.076Z,48.36
2019-02-07T11:27:45.493Z,48.28
2019-02-07T11:30:28.199Z,47.81
2019-02-07T11:33:20.637Z,47.80
2019-02-07T11:36:13.245Z,48.64
2019-02-07T11:39:01.227Z,48.70
2019-02-07T11:41:47.834Z,49.00
2019-02-07T11:44:35.915Z,49.09
2019-02-07T11:47:23.929Z,49.12
2019-02-07T11:50:13.248Z,49.94
2019-02-07T11:53:23.502Z,49.90
2019-02-07T11:56:11.271Z,49.62
2019-02-07T11:59:12.817Z,49.70
2019-02-07T12:02:08.770Z,50.17
2019-02-07T12:04:51.062Z,50.04
2019-02-07T12:07:40.397Z,50.45
2019-02-07T12:10:47.824Z,50.26
2019-02-07T12:13:30.832Z,50.20
2019-02-07T12:16:36.893Z,50.49
2019-02-07T12:19:32.042Z,49.86
2019-02-07T12:22:33.254Z,49.26
2019-02-07T12:25:36.334Z,50.03
2019-02-07T12:28:36.228Z,50.47
2019-02-07T12:31:24.251Z,50.25
2019-02-07T12:34:03.785Z,50.72
2019-02-07T12:36:43.649Z,50.92
2019-02-07T12:39:48.421Z,50.50
2019-02-07T12:42:43.815Z,50.90
2019-02-07T12:45:48.421Z,50.83
2019-02-07T12:48:50.630Z,50.73
2019-02-07T12:51:42.905Z,50.71
2019-02-07T12:54:32.254Z,50.93
2019-02-07T12:57:40.223Z,50.42
2019-02-07T13:00:31.199Z,50.40
2019-02-07T13:03:21.109Z,50.32
2019-02-07T13:06:06.604Z,50.03
2019-02-07T13:08:59.037Z,50.37
2019-02-07T13:11:51.184Z,50.39
2019-02-07T13:14:41.915Z,50.65
2019-02-07T13:17:31.678Z,50.70
2019-02-07T13:20:19.774Z,50.45
2019-02-07T13:23:14.811Z,51.18
2019-02-07T13:26:00.051Z,51.45
2019-02-07T13:29:04.683Z,51.65
2019-02-07T13:31:54.205Z,51.23
2019-02-07T13:34:49.377Z,51.11
2019-02-07T13:37:56.763Z,50.76
2019-02-07T13:40:46.270Z,51.06
2019-02-07T13:43:41.826Z,51.28
2019-02-07T13:46:22.570Z,51.59
2019-02-07T13:49:15.336Z,52.42
2019-02-07T13:52:05.847Z,52.33
2019-02-07T13:55:04.820Z,52.30
2019-02-07T13:58:12.309Z,52.35
2019-02-07T14:01:07.482Z,52.35
2019-02-07T14:03:56.785Z,52.98
2019-02-07T14:06:44.452Z,52.68
2019-02-07T14:09:39.945Z,52.86
2019-02-07T14:12:38.271Z,53.01
2019-02-07T14:15:23.044Z,52.86
2019-02-07T14:18:16.665Z,53.20
2019-02-07T14:21:24.342Z,54.43
2019-02-07T14:24:20.456Z,54.56
2019-02-07T14:27:08.422Z,54.26
2019-02-07T14:30:07.011Z,54.34
2019-02-07T14:32:55.019Z,54.41
2019-02-07T14:36:02.617Z,54.30
2019-02-07T14:38:54.939Z,54.08
2019-02-07T14:41:40.125Z,54.04
2019-02-07T14:44:38.797Z,54.12
2019-02-07T14:47:09.343Z,54.91
2019-02-07T14:49:40.103Z,54.68
2019-02-07T14:52:10.857Z,55.25
2019-02-07T14:54:41.334Z,55.13
2019-02-07T14:57:11.902Z,55.26
2019-02-07T14:59:42.412Z,55.39
2019-02-07T15:02:13.102Z,55.64
2019-02-07T15:04:44.017Z,55.74
2019-02-07T15:07:14.636Z,55.92
2019-02-07T15:09:45.165Z,55.94
2019-02-07T15:12:15.873Z,55.88
2019-02-07T15:14:46.606Z,56.02
2019-02-07T15:17:17.268Z,56.22
2019-02-07T15:19:48.130Z,56.66
2019-02-07T15:22:18.864Z,57.15
2019-02-07T15:24:49.333Z,56.73
2019-02-07T15:27:19.845Z,56.96
2019-02-07T15:29:50.321Z,56.92
2019-02-07T15:32:20.835Z,56.54
2019-02-07T15:34:53.832Z,56.64
2019-02-07T15:37:23.623Z,56.78
2019-02-07T15:39:54.144Z,57.09
2019-02-07T15:42:24.617Z,57.02
2019-02-07T15:44:55.567Z,56.95
2019-02-07T15:47:26.130Z,57.15
2019-02-07T15:49:56.638Z,57.45
2019-02-07T15:52:27.113Z,57.55
2019-02-07T15:54:57.616Z,57.18
2019-02-07T15:57:28.107Z,57.36
2019-02-07T16:00:01.728Z,58.26
2019-02-07T16:02:38.697Z,58.04
2019-02-07T16:05:11.913Z,58.36
2019-02-07T16:07:42.429Z,58.41
2019-02-07T16:10:14.967Z,58.65
2019-02-07T16:12:45.430Z,59.21
2019-02-07T16:15:16.467Z,59.42
2019-02-07T16:17:47.122Z,59.51
2019-02-07T16:20:18.850Z,59.20
2019-02-07T16:22:49.657Z,59.51
2019-02-07T16:25:20.495Z,59.68
2019-02-07T16:27:50.989Z,59.48
2019-02-07T16:30:21.856Z,59.71
2019-02-07T16:32:52.366Z,59.80
2019-02-07T16:35:23.335Z,60.12
2019-02-07T16:37:54.074Z,60.47
2019-02-07T16:40:24.939Z,60.50
2019-02-07T16:42:55.619Z,60.67
2019-02-07T16:45:26.433Z,60.91
2019-02-07T16:47:57.051Z,60.64
2019-02-07T16:50:27.749Z,60.51
2019-02-07T16:52:58.249Z,60.64
2019-02-07T16:55:28.956Z,60.65
2019-02-07T16:57:59.656Z,60.71
2019-02-07T17:00:30.528Z,60.71
2019-02-07T17:03:01.368Z,60.88
2019-02-07T17:05:31.971Z,61.02
2019-02-07T17:08:02.542Z,60.95
2019-02-07T17:10:34.065Z,60.81
2019-02-07T17:13:05.232Z,60.64
2019-02-07T17:15:36.461Z,60.66
2019-02-07T17:18:07.171Z,60.23
2019-02-07T17:20:37.930Z,59.80
2019-02-07T17:23:08.689Z,59.97
2019-02-07T17:25:39.596Z,59.95
2019-02-07T17:28:10.303Z,59.80
2019-02-07T17:30:40.861Z,60.40
2019-02-07T17:33:11.548Z,60.36
2019-02-07T17:35:42.257Z,60.10
2019-02-07T17:38:12.745Z,60.21
2019-02-07T17:40:43.384Z,60.45
2019-02-07T17:43:14.323Z,60.61
2019-02-07T17:45:44.919Z,60.75
2019-02-07T17:48:15.766Z,60.89
2019-02-07T17:50:46.486Z,61.22
2019-02-07T17:53:16.955Z,61.02
2019-02-07T17:55:47.460Z,60.89
2019-02-07T17:58:17.960Z,61.15
2019-02-07T18:00:57.962Z,61.22
2019-02-07T18:03:28.572Z,61.30
2019-02-07T18:05:59.083Z,61.30
2019-02-07T18:08:30.140Z,61.48
2019-02-07T18:11:00.606Z,61.48
2019-02-07T18:13:31.129Z,61.88
2019-02-07T18:16:01.591Z,61.96
2019-02-07T18:18:32.051Z,61.87
2019-02-07T18:21:02.963Z,61.92
2019-02-07T18:23:33.630Z,62.05
2019-02-07T18:26:04.251Z,62.01
2019-02-07T18:28:34.781Z,62.17
2019-02-07T18:31:05.499Z,62.24
2019-02-07T18:33:36.116Z,62.39
2019-02-07T18:36:06.678Z,62.37
2019-02-07T18:38:37.184Z,62.36
2019-02-07T18:41:07.749Z,62.61
2019-02-07T18:43:38.241Z,62.55
2019-02-07T18:46:08.876Z,62.73
2019-02-07T18:48:39.349Z,62.88
2019-02-07T18:51:10.093Z,62.96
2019-02-07T18:53:40.610Z,63.00
2019-02-07T18:56:11.133Z,63.00
2019-02-07T18:58:41.609Z,63.02
2019-02-07T19:01:12.208Z,63.16
2019-02-07T19:03:42.678Z,62.84
2019-02-07T19:06:13.188Z,62.80
2019-02-07T19:08:43.816Z,62.60
2019-02-07T19:11:14.324Z,62.46
2019-02-07T19:13:44.833Z,62.40
2019-02-07T19:16:17.066Z,62.21
2019-02-07T19:18:47.846Z,61.99
2019-02-07T19:21:18.299Z,61.88
2019-02-07T19:23:48.834Z,60.98
2019-02-07T19:26:19.302Z,59.88
2019-02-07T19:28:49.797Z,59.68
2019-02-07T19:31:20.273Z,59.34
2019-02-07T19:33:50.795Z,58.64
2019-02-07T19:36:21.272Z,58.80
2019-02-07T19:38:51.790Z,58.29
2019-02-07T19:41:22.245Z,58.14
2019-02-07T19:43:52.758Z,57.94
2019-02-07T19:46:23.582Z,56.79
2019-02-07T19:48:54.078Z,56.08
2019-02-07T19:51:24.633Z,55.75
2019-02-07T19:53:55.247Z,55.20
2019-02-07T19:56:25.711Z,54.44
2019-02-07T19:58:56.400Z,54.68
2019-02-07T20:01:27.145Z,54.52
2019-02-07T20:03:59.149Z,54.18
2019-02-07T20:06:29.621Z,53.75
2019-02-07T20:09:00.361Z,53.73
2019-02-07T20:11:30.866Z,53.94
2019-02-07T20:14:01.639Z,54.32
2019-02-07T20:16:32.093Z,54.06
2019-02-07T20:19:02.595Z,54.30
2019-02-07T20:21:33.094Z,54.56
2019-02-07T20:24:03.688Z,54.60
2019-02-07T20:26:34.173Z,54.75
2019-02-07T20:29:04.769Z,54.58
2019-02-07T20:31:35.265Z,54.74
2019-02-07T20:34:05.852Z,54.98
2019-02-07T20:36:36.359Z,54.71
2019-02-07T20:39:09.692Z,54.16
2019-02-07T20:41:40.163Z,54.31
2019-02-07T20:44:10.669Z,53.35
2019-02-07T20:46:41.190Z,53.79
2019-02-07T20:49:11.803Z,53.00
2019-02-07T20:51:42.278Z,52.80
2019-02-07T20:54:12.790Z,53.13
2019-02-07T20:56:43.292Z,53.01
2019-02-07T20:59:14.266Z,53.13
2019-02-07T21:01:44.775Z,53.32
2019-02-07T21:04:15.247Z,52.99
2019-02-07T21:06:45.753Z,53.10
2019-02-07T21:09:16.224Z,53.32
2019-02-07T21:11:46.724Z,52.99
2019-02-07T21:14:17.475Z,53.06
2019-02-07T21:16:47.942Z,53.04
2019-02-07T21:19:18.401Z,53.30
2019-02-07T21:21:48.936Z,53.10
2019-02-07T21:24:19.410Z,53.46
2019-02-07T21:26:49.868Z,53.09
2019-02-07T21:29:20.641Z,53.25
2019-02-07T21:31:51.109Z,53.51
2019-02-07T21:34:21.613Z,53.78
2019-02-07T21:36:52.083Z,53.78
2019-02-07T21:39:22.614Z,53.72
2019-02-07T21:41:53.186Z,53.49
2019-02-07T21:44:23.857Z,53.43
2019-02-07T21:46:54.384Z,53.05
2019-02-07T21:49:24.862Z,52.71
2019-02-07T21:51:55.358Z,52.76
2019-02-07T21:54:25.925Z,52.59
2019-02-07T21:56:56.553Z,52.79
2019-02-07T21:59:27.294Z,52.84
2019-02-07T22:01:57.789Z,53.06
2019-02-07T22:04:28.254Z,52.87
2019-02-07T22:06:58.758Z,53.02
2019-02-07T22:09:29.216Z,52.93
2019-02-07T22:11:59.704Z,52.82
2019-02-07T22:14:30.193Z,52.89
2019-02-07T22:17:00.709Z,52.78
2019-02-07T22:19:31.184Z,53.10
2019-02-07T22:22:01.694Z,52.87
2019-02-07T22:24:32.211Z,52.94
2019-02-07T22:27:02.899Z,53.09
2019-02-07T22:29:33.357Z,53.31
2019-02-07T22:32:03.950Z,53.18
2019-02-07T22:34:34.405Z,53.25
2019-02-07T22:37:04.971Z,53.51
2019-02-07T22:39:35.468Z,53.79
2019-02-07T22:42:06.144Z,53.98
2019-02-07T22:44:36.712Z,54.10
2019-02-07T22:47:07.320Z,54.30
2019-02-07T22:49:37.816Z,54.24
2019-02-07T22:52:08.277Z,53.92
2019-02-07T22:54:38.951Z,54.04
2019-02-07T22:57:09.450Z,54.17
2019-02-07T22:59:39.896Z,54.24
2019-02-07T23:02:11.160Z,53.91
2019-02-07T23:04:41.651Z,53.73
2019-02-07T23:07:12.132Z,54.01
2019-02-07T23:09:42.579Z,54.45
2019-02-07T23:12:13.071Z,54.63
2019-02-07T23:14:43.628Z,54.62
2019-02-07T23:17:14.293Z,54.55
2019-02-07T23:19:44.803Z,54.38
2019-02-07T23:22:15.756Z,54.35
2019-02-07T23:24:46.263Z,54.24
2019-02-07T23:27:16.733Z,54.12
2019-02-07T23:29:47.235Z,54.00
2019-02-07T23:32:17.684Z,54.38
2019-02-07T23:34:48.197Z,54.57
2019-02-07T23:37:18.666Z,54.44
2019-02-07T23:39:49.098Z,54.20
2019-02-07T23:42:19.811Z,54.46
2019-02-07T23:44:50.258Z,54.37
2019-02-07T23:47:20.730Z,54.30
2019-02-07T23:49:51.234Z,54.32
2019-02-07T23:52:21.910Z,54.12
2019-02-07T23:54:52.481Z,54.11
2019-02-07T23:57:23.338Z,54.28
2019-02-07T23:59:53.834Z,54.55
